Time;durP1;ratioP1;P1;durP2;ratioP2;P2;SDS_P1;SDS_P2;PMS_P1;PMS_P2;Temp;Humidity;BMP_temperature;BMP_pressure;BME280_temperature;BME280_humidity;BME280_pressure;Samples;Min_cycle;Max_cycle;Signal;HPM_P1;HPM_P2
2021/07/01 00:00:30;;;;;;;17.30;11.97;;;17.40;98.30;;;;;;5174588;23;20466;-82
2021/07/01 00:02:36;;;;;;;16.47;11.93;;;17.40;98.30;;;;;;5181040;23;20419;-82
2021/07/01 00:04:41;;;;;;;17.20;11.70;;;17.30;98.30;;;;;;5181631;23;20427;-81
2021/07/01 00:06:46;;;;;;;19.47;11.67;;;17.30;98.30;;;;;;5173790;23;20526;-81
2021/07/01 00:08:57;;;;;;;21.93;14.00;;;17.20;98.30;;;;;;5179521;23;20474;-82
2021/07/01 00:11:04;;;;;;;21.53;14.60;;;17.20;98.30;;;;;;5172205;23;20411;-80
2021/07/01 00:13:12;;;;;;;19.90;13.50;;;17.30;98.30;;;;;;5181388;23;20429;-81
2021/07/01 00:15:21;;;;;;;20.27;14.37;;;17.30;98.30;;;;;;5181082;23;20404;-81
2021/07/01 00:17:24;;;;;;;19.50;12.40;;;17.40;98.30;;;;;;5179554;23;21011;-82
2021/07/01 00:19:33;;;;;;;19.47;14.10;;;17.40;98.30;;;;;;5171215;23;20774;-82
2021/07/01 00:21:39;;;;;;;21.00;13.10;;;17.40;98.30;;;;;;5171488;23;20430;-82
2021/07/01 00:23:42;;;;;;;20.67;12.77;;;17.30;98.30;;;;;;5172532;23;20413;-82
2021/07/01 00:25:46;;;;;;;21.23;13.60;;;17.30;98.30;;;;;;5180461;23;20424;-82
2021/07/01 00:27:53;;;;;;;21.33;13.27;;;17.30;98.30;;;;;;5178757;23;20481;-82
2021/07/01 00:30:07;;;;;;;19.63;13.07;;;17.30;98.30;;;;;;5179201;23;20420;-82
2021/07/01 00:32:11;;;;;;;20.23;12.50;;;17.40;98.30;;;;;;5177483;23;20526;-82
2021/07/01 00:34:15;;;;;;;18.80;13.80;;;17.30;98.30;;;;;;5177525;23;20430;-82
2021/07/01 00:36:23;;;;;;;25.60;12.70;;;17.30;98.30;;;;;;5178573;23;20415;-82
2021/07/01 00:38:31;;;;;;;17.97;11.50;;;17.30;98.30;;;;;;5175689;23;20473;-81
2021/07/01 00:40:40;;;;;;;19.57;12.13;;;17.40;98.30;;;;;;5168294;23;20420;-82
2021/07/01 00:42:43;;;;;;;19.50;12.53;;;17.30;98.30;;;;;;5177724;23;20401;-82
2021/07/01 00:44:48;;;;;;;19.13;12.43;;;17.30;98.30;;;;;;5177743;23;20535;-81
2021/07/01 00:46:51;;;;;;;17.47;12.00;;;17.40;98.30;;;;;;5181052;23;20446;-82
2021/07/01 00:48:54;;;;;;;16.93;11.40;;;17.40;98.30;;;;;;5180167;23;20961;-82
2021/07/01 00:50:57;;;;;;;19.00;12.10;;;17.40;98.30;;;;;;5181064;23;20904;-82
2021/07/01 00:53:05;;;;;;;15.30;10.17;;;17.40;98.30;;;;;;5172653;23;20748;-82
2021/07/01 00:55:13;;;;;;;19.67;12.17;;;17.40;98.30;;;;;;5181860;23;20779;-81
2021/07/01 00:57:20;;;;;;;21.50;13.50;;;17.50;98.30;;;;;;5180067;23;20415;-82
2021/07/01 00:59:26;;;;;;;16.80;11.20;;;17.50;98.30;;;;;;5179474;23;20936;-82
2021/07/01 01:01:29;;;;;;;16.33;11.70;;;17.50;98.30;;;;;;5181059;23;20823;-83
2021/07/01 01:03:37;;;;;;;21.40;13.43;;;17.40;98.30;;;;;;5172213;23;20438;-82
2021/07/01 01:05:43;;;;;;;18.73;12.17;;;17.50;98.30;;;;;;5183880;23;20424;-81
2021/07/01 01:07:47;;;;;;;16.40;11.27;;;17.50;98.30;;;;;;5184433;23;20539;-81
2021/07/01 01:09:54;;;;;;;16.87;11.90;;;17.50;98.30;;;;;;5181225;23;20529;-82
2021/07/01 01:12:03;;;;;;;18.90;11.80;;;17.50;98.30;;;;;;5174616;23;20508;-82
2021/07/01 01:14:10;;;;;;;19.97;12.47;;;17.60;98.30;;;;;;5174085;23;20442;-81
2021/07/01 01:16:16;;;;;;;24.80;13.40;;;17.70;98.30;;;;;;5175633;23;20451;-81
2021/07/01 01:18:20;;;;;;;18.23;11.83;;;17.70;98.30;;;;;;5174109;23;20440;-82
2021/07/01 01:20:25;;;;;;;16.23;11.63;;;17.60;98.30;;;;;;5181750;23;20416;-81
2021/07/01 01:22:29;;;;;;;18.33;11.50;;;17.70;98.30;;;;;;5178239;23;20475;-81
2021/07/01 01:24:39;;;;;;;16.43;11.73;;;17.60;98.30;;;;;;5169303;23;20424;-82
2021/07/01 01:26:56;;;;;;;16.27;11.33;;;17.60;98.30;;;;;;5166770;23;20424;-81
2021/07/01 01:29:02;;;;;;;18.30;12.13;;;17.60;98.30;;;;;;5181611;23;20436;-82
2021/07/01 01:31:08;;;;;;;16.07;11.93;;;17.70;98.30;;;;;;5181796;23;20511;-82
2021/07/01 01:33:13;;;;;;;21.40;13.07;;;17.70;98.30;;;;;;5180267;23;20430;-82
2021/07/01 01:35:19;;;;;;;16.00;11.87;;;17.70;98.30;;;;;;5171842;23;20427;-82
2021/07/01 01:37:24;;;;;;;16.53;11.53;;;17.70;98.30;;;;;;5171605;23;20444;-82
2021/07/01 01:39:34;;;;;;;18.90;12.73;;;17.60;98.30;;;;;;5180371;23;20442;-81
2021/07/01 01:41:40;;;;;;;18.80;11.30;;;17.50;98.30;;;;;;5183141;23;20722;-82
2021/07/01 01:43:47;;;;;;;14.90;11.43;;;17.50;98.30;;;;;;5178090;23;20442;-81
2021/07/01 01:45:51;;;;;;;14.57;11.90;;;17.50;98.30;;;;;;5177818;23;20416;-83
2021/07/01 01:47:54;;;;;;;15.07;11.70;;;17.40;98.30;;;;;;5183724;23;20522;-83
2021/07/01 01:49:58;;;;;;;18.93;13.60;;;17.40;98.30;;;;;;5184614;23;20434;-83
2021/07/01 01:52:02;;;;;;;17.13;13.03;;;17.40;98.30;;;;;;5184973;23;20424;-82
2021/07/01 01:54:08;;;;;;;18.70;12.53;;;17.40;98.30;;;;;;5185582;23;20459;-82
2021/07/01 01:56:13;;;;;;;18.80;12.73;;;17.40;98.30;;;;;;5176696;23;20408;-83
2021/07/01 01:58:18;;;;;;;18.83;12.63;;;17.50;98.30;;;;;;5174353;23;20443;-83
2021/07/01 02:00:25;;;;;;;17.30;12.00;;;17.50;98.30;;;;;;5178017;23;20428;-83
2021/07/01 02:02:35;;;;;;;17.57;11.63;;;17.50;98.30;;;;;;5179804;23;20422;-83
2021/07/01 02:04:42;;;;;;;16.80;12.17;;;17.60;98.30;;;;;;5180480;23;20889;-83
2021/07/01 02:06:45;;;;;;;16.87;12.90;;;17.50;98.30;;;;;;5173358;23;20428;-82
2021/07/01 02:08:48;;;;;;;21.03;12.70;;;17.40;98.30;;;;;;5182174;23;20507;-82
2021/07/01 02:10:51;;;;;;;21.20;13.00;;;17.50;98.30;;;;;;5169230;23;20428;-83
2021/07/01 02:12:57;;;;;;;18.77;12.67;;;17.50;98.30;;;;;;5175822;23;20431;-83
2021/07/01 02:15:04;;;;;;;16.30;12.40;;;17.60;98.30;;;;;;5174624;23;20799;-83
2021/07/01 02:17:09;;;;;;;13.97;11.57;;;17.70;98.30;;;;;;5176145;23;20406;-84
2021/07/01 02:19:17;;;;;;;16.10;10.90;;;17.70;98.30;;;;;;5167306;23;20493;-83
2021/07/01 02:21:22;;;;;;;15.10;11.97;;;17.70;98.30;;;;;;5169870;23;20444;-83
2021/07/01 02:23:33;;;;;;;13.17;10.53;;;17.90;98.30;;;;;;5176671;23;20415;-82
2021/07/01 02:25:39;;;;;;;17.13;11.90;;;17.90;98.30;;;;;;5176508;23;20446;-83
2021/07/01 02:27:44;;;;;;;13.97;11.57;;;17.90;98.30;;;;;;5176313;23;20495;-84
2021/07/01 02:29:53;;;;;;;17.70;10.50;;;17.80;98.30;;;;;;5175898;23;20420;-83
2021/07/01 02:32:04;;;;;;;19.60;11.27;;;17.80;98.30;;;;;;5168628;23;20412;-83
2021/07/01 02:34:07;;;;;;;12.20;10.60;;;17.80;98.30;;;;;;5177736;23;20415;-83
2021/07/01 02:36:10;;;;;;;14.73;11.23;;;17.80;98.30;;;;;;5182684;23;20412;-83
2021/07/01 02:38:13;;;;;;;14.20;11.60;;;17.60;98.30;;;;;;5167003;23;20444;-82
2021/07/01 02:40:16;;;;;;;13.70;11.00;;;17.50;98.30;;;;;;5174964;23;20458;-83
2021/07/01 02:42:19;;;;;;;16.00;11.37;;;17.40;98.30;;;;;;5181055;23;20879;-83
2021/07/01 02:44:24;;;;;;;13.07;10.67;;;17.40;98.30;;;;;;5181345;23;20430;-83
2021/07/01 02:46:29;;;;;;;15.10;10.87;;;17.40;98.30;;;;;;5182655;23;20481;-82
2021/07/01 02:48:32;;;;;;;14.73;11.33;;;17.50;98.30;;;;;;5174573;23;20478;-82
2021/07/01 02:50:36;;;;;;;14.30;11.47;;;17.60;98.30;;;;;;5181467;23;20479;-84
2021/07/01 02:52:39;;;;;;;16.70;11.77;;;17.60;98.30;;;;;;5180626;23;20420;-83
2021/07/01 02:54:42;;;;;;;14.43;11.37;;;17.50;98.30;;;;;;5180888;23;20435;-82
2021/07/01 02:56:45;;;;;;;16.00;12.10;;;17.50;98.30;;;;;;5179466;23;20450;-83
2021/07/01 02:58:49;;;;;;;17.00;13.10;;;17.50;98.30;;;;;;5178505;23;20446;-84
2021/07/01 03:00:52;;;;;;;17.97;13.50;;;17.50;98.30;;;;;;5179924;23;20420;-82
2021/07/01 03:02:56;;;;;;;15.10;12.07;;;17.40;98.30;;;;;;5173827;23;20435;-82
2021/07/01 03:05:03;;;;;;;14.83;11.50;;;17.40;98.30;;;;;;5180100;23;20435;-83
2021/07/01 03:07:06;;;;;;;21.30;12.57;;;17.40;98.30;;;;;;5178191;23;20960;-82
2021/07/01 03:09:11;;;;;;;19.10;13.03;;;17.40;98.30;;;;;;5168911;23;20434;-83
2021/07/01 03:11:14;;;;;;;14.70;11.43;;;17.40;98.30;;;;;;5177652;23;20985;-82
2021/07/01 03:13:20;;;;;;;15.27;10.70;;;17.30;98.30;;;;;;5179486;23;20438;-83
2021/07/01 03:15:25;;;;;;;14.00;10.57;;;17.10;98.30;;;;;;5180898;23;20466;-83
2021/07/01 03:17:31;;;;;;;16.23;12.20;;;17.10;98.30;;;;;;5178595;23;20447;-82
2021/07/01 03:19:36;;;;;;;17.13;11.77;;;17.10;98.30;;;;;;5173985;23;20420;-82
2021/07/01 03:21:40;;;;;;;15.27;12.53;;;17.10;98.30;;;;;;5173347;23;20454;-83
2021/07/01 03:23:46;;;;;;;16.90;12.17;;;17.30;98.30;;;;;;5180785;23;20423;-82
2021/07/01 03:25:52;;;;;;;16.40;11.97;;;17.30;98.30;;;;;;5182390;23;20427;-82
2021/07/01 03:27:55;;;;;;;18.63;13.33;;;17.40;98.30;;;;;;5181291;23;20474;-83
2021/07/01 03:30:03;;;;;;;16.10;12.80;;;17.40;98.30;;;;;;5181470;23;20419;-82
2021/07/01 03:32:08;;;;;;;10.97;9.80;;;17.50;98.30;;;;;;5182595;23;21286;-82
2021/07/01 03:34:13;;;;;;;14.27;9.80;;;17.50;98.30;;;;;;5174246;23;20531;-83
2021/07/01 03:36:17;;;;;;;12.40;10.50;;;17.30;98.30;;;;;;5181848;23;20459;-82
2021/07/01 03:38:20;;;;;;;14.33;11.10;;;17.10;98.30;;;;;;5179484;23;20982;-83
2021/07/01 03:40:23;;;;;;;13.47;10.90;;;17.10;98.30;;;;;;5180474;23;20424;-83
2021/07/01 03:42:26;;;;;;;14.20;10.43;;;17.00;98.30;;;;;;5182210;23;20415;-83
2021/07/01 03:44:30;;;;;;;14.10;10.20;;;17.00;98.30;;;;;;5181255;23;20466;-83
2021/07/01 03:46:49;;;;;;;10.97;8.57;;;17.00;98.30;;;;;;5180093;23;20434;-83
2021/07/01 03:48:53;;;;;;;9.37;7.83;;;17.00;98.30;;;;;;5179357;23;21129;-83
2021/07/01 03:51:06;;;;;;;11.23;8.07;;;17.00;98.30;;;;;;5176183;23;20414;-82
2021/07/01 03:53:13;;;;;;;9.90;7.93;;;16.90;98.30;;;;;;5168844;23;20941;-82
2021/07/01 03:55:18;;;;;;;9.30;7.10;;;16.90;98.30;;;;;;5175475;23;20510;-82
2021/07/01 03:57:22;;;;;;;9.60;8.23;;;16.80;98.30;;;;;;5179547;23;20443;-83
2021/07/01 03:59:28;;;;;;;10.30;8.27;;;16.80;98.30;;;;;;5183148;23;20498;-82
2021/07/01 04:01:31;;;;;;;15.20;8.70;;;16.80;98.30;;;;;;5180111;23;20415;-83
2021/07/01 04:03:34;;;;;;;10.93;7.83;;;16.80;98.30;;;;;;5180866;23;20952;-83
2021/07/01 04:05:37;;;;;;;9.77;7.77;;;16.90;98.30;;;;;;5182814;23;20503;-81
2021/07/01 04:07:40;;;;;;;9.70;6.90;;;16.90;98.30;;;;;;5174792;23;20511;-82
2021/07/01 04:09:45;;;;;;;10.60;8.37;;;16.80;98.30;;;;;;5174334;23;20474;-83
2021/07/01 04:11:51;;;;;;;9.03;7.70;;;16.80;98.30;;;;;;5181809;23;20458;-83
2021/07/01 04:13:58;;;;;;;10.80;7.70;;;16.80;98.30;;;;;;5183396;23;20989;-83
2021/07/01 04:16:01;;;;;;;13.03;9.43;;;16.90;98.30;;;;;;5183021;23;20423;-83
2021/07/01 04:18:09;;;;;;;11.03;7.83;;;16.90;98.30;;;;;;5181580;23;20495;-84
2021/07/01 04:20:13;;;;;;;10.23;8.20;;;17.00;98.30;;;;;;5181636;23;20407;-83
2021/07/01 04:22:16;;;;;;;11.07;8.13;;;17.00;98.30;;;;;;5183320;23;20912;-83
2021/07/01 04:24:19;;;;;;;9.13;7.20;;;17.00;98.30;;;;;;5182293;23;20487;-83
2021/07/01 04:26:23;;;;;;;9.03;7.90;;;17.10;98.30;;;;;;5174286;23;20527;-82
2021/07/01 04:28:28;;;;;;;9.43;7.60;;;17.10;98.30;;;;;;5173093;23;20455;-82
2021/07/01 04:30:33;;;;;;;7.83;6.37;;;17.20;98.30;;;;;;5182807;23;20478;-82
2021/07/01 04:32:36;;;;;;;8.80;7.50;;;17.00;98.30;;;;;;5184188;23;20839;-83
2021/07/01 04:34:39;;;;;;;8.20;6.90;;;16.90;98.30;;;;;;5184503;23;20516;-82
2021/07/01 04:36:42;;;;;;;8.33;7.40;;;16.90;98.30;;;;;;5175770;23;20456;-82
2021/07/01 04:38:50;;;;;;;8.33;6.87;;;16.90;98.30;;;;;;5175232;23;20450;-81
2021/07/01 04:40:54;;;;;;;8.00;6.43;;;17.00;98.30;;;;;;5180336;23;20454;-83
2021/07/01 04:42:59;;;;;;;21.43;7.37;;;17.00;98.30;;;;;;5178733;23;20458;-82
2021/07/01 04:45:05;;;;;;;7.80;6.07;;;16.90;98.30;;;;;;5170837;23;20438;-82
2021/07/01 04:47:08;;;;;;;8.43;6.80;;;16.90;98.30;;;;;;5169403;23;20871;-82
2021/07/01 04:49:11;;;;;;;7.00;5.77;;;16.90;98.30;;;;;;5176364;23;20450;-83
2021/07/01 04:51:14;;;;;;;8.70;6.90;;;17.00;98.30;;;;;;5170848;23;20432;-82
2021/07/01 04:53:17;;;;;;;8.70;7.10;;;17.00;98.30;;;;;;5179441;23;20448;-83
2021/07/01 04:55:24;;;;;;;8.37;7.17;;;17.10;98.30;;;;;;5171059;23;20511;-82
2021/07/01 04:57:30;;;;;;;9.47;6.07;;;17.20;98.30;;;;;;5175765;23;20531;-83
2021/07/01 04:59:35;;;;;;;6.53;5.83;;;17.30;98.30;;;;;;5180475;23;20456;-82
2021/07/01 05:01:39;;;;;;;5.47;4.90;;;17.30;98.30;;;;;;5181629;23;20451;-83
2021/07/01 05:03:44;;;;;;;6.60;5.50;;;17.40;98.30;;;;;;5182469;23;20420;-82
2021/07/01 05:05:47;;;;;;;6.00;5.40;;;17.40;98.30;;;;;;5181639;23;20432;-83
2021/07/01 05:07:51;;;;;;;6.63;5.70;;;17.40;98.30;;;;;;5178317;23;20432;-83
2021/07/01 05:09:56;;;;;;;6.50;5.43;;;17.40;98.30;;;;;;5170030;23;20841;-83
2021/07/01 05:11:59;;;;;;;6.43;5.70;;;17.50;98.30;;;;;;5178226;23;20507;-83
2021/07/01 05:14:03;;;;;;;6.77;5.83;;;17.60;98.30;;;;;;5177076;23;20428;-83
2021/07/01 05:16:07;;;;;;;6.33;5.70;;;17.50;98.30;;;;;;5176138;23;20423;-83
2021/07/01 05:18:11;;;;;;;5.93;5.33;;;17.50;98.30;;;;;;5171123;23;20443;-82
2021/07/01 05:20:14;;;;;;;6.40;5.73;;;17.50;98.30;;;;;;5185466;23;20454;-83
2021/07/01 05:22:19;;;;;;;6.40;5.50;;;17.50;98.30;;;;;;5174475;23;20417;-82
2021/07/01 05:24:24;;;;;;;6.90;6.20;;;17.50;98.30;;;;;;5165941;23;20459;-83
2021/07/01 05:26:27;;;;;;;6.30;5.70;;;17.50;98.30;;;;;;5174735;23;20420;-83
2021/07/01 05:28:33;;;;;;;6.13;5.53;;;17.60;98.30;;;;;;5173831;23;20945;-83
2021/07/01 05:30:36;;;;;;;6.93;6.23;;;17.70;98.30;;;;;;5173413;23;20856;-82
2021/07/01 05:32:51;;;;;;;7.00;5.17;;;17.80;98.30;;;;;;5175704;23;20423;-83
2021/07/01 05:34:54;;;;;;;7.23;5.43;;;17.90;98.30;;;;;;5178513;23;20444;-83
2021/07/01 05:37:03;;;;;;;7.33;5.53;;;18.00;98.30;;;;;;5176973;23;20427;-83
2021/07/01 05:39:07;;;;;;;5.77;5.07;;;18.00;98.30;;;;;;5173939;23;20416;-83
2021/07/01 05:41:11;;;;;;;20.43;16.93;;;18.00;98.30;;;;;;5173100;23;20428;-83
2021/07/01 05:43:16;;;;;;;10.93;9.30;;;18.10;98.30;;;;;;5173839;23;20462;-83
2021/07/01 05:45:21;;;;;;;9.63;7.70;;;18.20;98.30;;;;;;5175970;23;20430;-83
2021/07/01 05:47:30;;;;;;;7.37;5.90;;;18.10;98.30;;;;;;5175836;23;20444;-83
2021/07/01 05:49:35;;;;;;;5.63;5.03;;;18.00;98.30;;;;;;5178286;23;20510;-82
2021/07/01 05:51:43;;;;;;;4.47;4.07;;;18.00;98.30;;;;;;5175965;23;20519;-83
2021/07/01 05:53:53;;;;;;;4.03;3.63;;;17.90;98.30;;;;;;5168407;23;20430;-83
2021/07/01 05:56:01;;;;;;;4.30;3.90;;;17.90;98.30;;;;;;5180561;23;20407;-83
2021/07/01 05:58:04;;;;;;;4.43;4.03;;;17.80;98.30;;;;;;5180570;23;20439;-83
2021/07/01 06:00:10;;;;;;;6.00;5.20;;;17.70;98.30;;;;;;5171757;23;20495;-82
2021/07/01 06:02:16;;;;;;;15.60;12.10;;;17.80;98.30;;;;;;5179607;23;20438;-83
2021/07/01 06:04:23;;;;;;;16.70;12.00;;;17.80;98.30;;;;;;5178751;23;20458;-83
2021/07/01 06:06:27;;;;;;;10.30;8.73;;;17.80;98.30;;;;;;5180651;23;20412;-82
2021/07/01 06:08:33;;;;;;;9.93;8.70;;;17.90;98.30;;;;;;5175491;23;20626;-83
2021/07/01 06:10:39;;;;;;;13.87;9.97;;;17.90;98.30;;;;;;5170491;23;20836;-83
2021/07/01 06:12:43;;;;;;;9.07;7.70;;;18.00;98.30;;;;;;5176091;23;20442;-83
2021/07/01 06:14:46;;;;;;;24.73;21.63;;;18.00;98.30;;;;;;5177104;23;20427;-83
2021/07/01 06:16:55;;;;;;;35.67;26.23;;;18.00;98.30;;;;;;5180519;23;20454;-83
2021/07/01 06:18:58;;;;;;;17.23;13.73;;;18.10;98.30;;;;;;5175058;23;20451;-83
2021/07/01 06:21:03;;;;;;;16.27;11.30;;;18.20;98.30;;;;;;5179778;23;20435;-83
2021/07/01 06:23:08;;;;;;;8.70;7.27;;;18.10;98.30;;;;;;5178399;23;20430;-82
2021/07/01 06:25:12;;;;;;;14.17;11.63;;;18.00;98.30;;;;;;5180023;23;20450;-83
2021/07/01 06:27:28;;;;;;;9.40;6.30;;;18.00;98.30;;;;;;5181060;23;20435;-83
2021/07/01 06:29:31;;;;;;;18.37;14.13;;;17.90;98.30;;;;;;5170368;23;20487;-83
2021/07/01 06:31:35;;;;;;;12.00;10.57;;;17.90;98.30;;;;;;5179112;23;20470;-84
2021/07/01 06:33:42;;;;;;;18.07;14.00;;;17.90;98.30;;;;;;5178304;23;20419;-83
2021/07/01 06:35:55;;;;;;;12.43;9.17;;;17.90;98.30;;;;;;5170347;23;20419;-82
2021/07/01 06:38:03;;;;;;;11.80;9.50;;;18.00;98.30;;;;;;5179020;23;20447;-83
2021/07/01 06:40:09;;;;;;;10.33;8.30;;;18.10;98.30;;;;;;5175235;23;20441;-83
2021/07/01 06:42:13;;;;;;;7.80;5.97;;;18.10;98.30;;;;;;5167045;23;21223;-82
2021/07/01 06:44:17;;;;;;;6.00;5.13;;;18.20;98.30;;;;;;5167730;23;20459;-82
2021/07/01 06:46:20;;;;;;;5.93;4.70;;;18.10;98.30;;;;;;5168588;23;20478;-83
2021/07/01 06:48:24;;;;;;;11.00;8.73;;;18.20;98.30;;;;;;5174663;23;20447;-83
2021/07/01 06:50:30;;;;;;;7.63;5.73;;;18.30;98.30;;;;;;5165873;23;20471;-82
2021/07/01 06:52:35;;;;;;;7.10;6.13;;;18.30;98.30;;;;;;5175224;23;20463;-82
2021/07/01 06:54:41;;;;;;;5.50;5.00;;;18.30;98.30;;;;;;5174976;23;20400;-83
2021/07/01 06:56:46;;;;;;;5.90;4.77;;;18.40;98.30;;;;;;5166387;23;20924;-83
2021/07/01 06:58:50;;;;;;;5.17;4.67;;;18.40;98.30;;;;;;5167480;23;20452;-83
2021/07/01 07:00:56;;;;;;;8.43;5.97;;;18.30;98.30;;;;;;5167887;23;20442;-81
2021/07/01 07:02:59;;;;;;;6.27;5.00;;;18.40;98.30;;;;;;5167965;23;20458;-83
2021/07/01 07:05:05;;;;;;;5.87;4.80;;;18.50;98.30;;;;;;5176558;23;20454;-81
2021/07/01 07:07:08;;;;;;;6.13;5.53;;;18.50;98.30;;;;;;5177228;23;20447;-82
2021/07/01 07:09:13;;;;;;;5.47;4.97;;;18.60;98.30;;;;;;5168529;23;20492;-84
2021/07/01 07:11:16;;;;;;;5.00;4.30;;;18.60;98.30;;;;;;5166393;23;20440;-83
2021/07/01 07:13:25;;;;;;;4.90;4.33;;;18.70;98.30;;;;;;5166322;23;21005;-84
2021/07/01 07:15:28;;;;;;;4.97;4.23;;;18.70;98.30;;;;;;5167547;23;20450;-83
2021/07/01 07:17:36;;;;;;;4.50;4.07;;;18.80;98.30;;;;;;5166403;23;21018;-83
2021/07/01 07:19:47;;;;;;;4.47;4.07;;;18.80;98.30;;;;;;5166591;23;20435;-83
2021/07/01 07:21:54;;;;;;;4.10;3.70;;;18.90;98.30;;;;;;5175361;23;20411;-84
2021/07/01 07:23:58;;;;;;;4.67;3.93;;;18.90;98.30;;;;;;5175547;23;20400;-83
2021/07/01 07:26:07;;;;;;;5.13;4.60;;;19.00;98.30;;;;;;5176226;23;20428;-82
2021/07/01 07:28:12;;;;;;;4.30;3.90;;;19.00;98.30;;;;;;5176317;23;21002;-82
2021/07/01 07:30:18;;;;;;;4.70;4.30;;;19.10;98.30;;;;;;5177507;23;20448;-83
2021/07/01 07:32:24;;;;;;;4.63;4.23;;;19.20;98.30;;;;;;5176701;23;20424;-83
2021/07/01 07:34:28;;;;;;;6.43;4.67;;;19.20;98.30;;;;;;5176529;23;20451;-83
2021/07/01 07:36:33;;;;;;;5.03;4.53;;;19.20;98.30;;;;;;5168114;23;20435;-84
2021/07/01 07:38:41;;;;;;;4.60;4.20;;;19.20;98.30;;;;;;5176644;23;20447;-82
2021/07/01 07:40:45;;;;;;;4.73;4.30;;;19.30;98.30;;;;;;5176751;23;20428;-83
2021/07/01 07:42:48;;;;;;;4.57;4.00;;;19.30;98.30;;;;;;5177199;23;20423;-83
2021/07/01 07:44:51;;;;;;;5.33;4.83;;;19.30;98.30;;;;;;5168442;23;20931;-84
2021/07/01 07:46:55;;;;;;;5.43;4.87;;;19.30;98.30;;;;;;5176492;23;20424;-83
2021/07/01 07:48:59;;;;;;;5.30;4.80;;;19.30;98.30;;;;;;5176269;23;20447;-83
2021/07/01 07:51:03;;;;;;;5.20;4.70;;;19.20;98.30;;;;;;5167441;23;20444;-83
2021/07/01 07:53:08;;;;;;;5.20;4.70;;;19.20;98.30;;;;;;5176098;23;20420;-82
2021/07/01 07:55:12;;;;;;;5.30;4.80;;;19.30;98.30;;;;;;5176346;23;20424;-84
2021/07/01 07:57:18;;;;;;;5.53;5.03;;;19.30;98.30;;;;;;5175186;23;20419;-83
2021/07/01 07:59:23;;;;;;;5.43;4.93;;;19.40;98.30;;;;;;5176221;23;20428;-82
2021/07/01 08:01:31;;;;;;;5.90;5.30;;;19.40;98.30;;;;;;5175941;23;20523;-84
2021/07/01 08:03:39;;;;;;;6.10;5.50;;;19.50;98.30;;;;;;5167673;23;20411;-83
2021/07/01 08:05:43;;;;;;;6.37;5.80;;;19.50;98.30;;;;;;5167657;23;20412;-83
2021/07/01 08:07:47;;;;;;;6.80;6.20;;;19.60;98.30;;;;;;5175462;23;20528;-84
2021/07/01 08:09:50;;;;;;;6.60;5.90;;;19.60;98.30;;;;;;5167252;23;20452;-83
2021/07/01 08:11:56;;;;;;;6.50;5.90;;;19.70;98.30;;;;;;5175048;23;20448;-83
2021/07/01 08:14:00;;;;;;;6.40;5.80;;;19.70;98.30;;;;;;5175136;23;20426;-83
2021/07/01 08:16:05;;;;;;;7.07;6.47;;;19.80;98.30;;;;;;5166383;23;20460;-82
2021/07/01 08:18:08;;;;;;;8.87;6.80;;;19.80;98.30;;;;;;5174037;23;20499;-83
2021/07/01 08:20:14;;;;;;;7.03;6.43;;;19.80;98.30;;;;;;5166416;23;20424;-83
2021/07/01 08:22:19;;;;;;;7.50;6.70;;;19.90;98.30;;;;;;5174468;23;20418;-83
2021/07/01 08:24:24;;;;;;;5.73;5.17;;;19.90;98.30;;;;;;5167145;23;20909;-83
2021/07/01 08:26:27;;;;;;;6.67;6.07;;;20.00;98.30;;;;;;5167636;23;20415;-82
2021/07/01 08:28:30;;;;;;;6.67;6.07;;;19.90;98.30;;;;;;5175151;23;20444;-83
2021/07/01 08:30:33;;;;;;;5.73;5.23;;;19.90;98.30;;;;;;5167295;23;20450;-83
2021/07/01 08:32:38;;;;;;;7.80;6.53;;;19.90;98.30;;;;;;5175922;23;20747;-83
2021/07/01 08:34:43;;;;;;;7.13;6.43;;;19.90;98.30;;;;;;5176251;23;20761;-83
2021/07/01 08:36:50;;;;;;;7.07;6.37;;;19.90;98.30;;;;;;5175425;23;20426;-83
2021/07/01 08:38:55;;;;;;;6.33;5.73;;;19.90;98.30;;;;;;5167405;23;20482;-83
2021/07/01 08:41:00;;;;;;;6.70;5.80;;;19.90;98.30;;;;;;5167468;23;20429;-83
2021/07/01 08:43:08;;;;;;;6.80;6.10;;;20.00;98.30;;;;;;5167418;23;20542;-82
2021/07/01 08:45:12;;;;;;;6.70;6.10;;;20.00;98.30;;;;;;5175402;23;20432;-83
2021/07/01 08:47:19;;;;;;;6.77;6.17;;;20.10;98.30;;;;;;5174548;23;20916;-83
2021/07/01 08:49:37;;;;;;;7.80;7.10;;;20.10;98.30;;;;;;5175077;23;20439;-83
2021/07/01 08:51:43;;;;;;;7.50;6.80;;;20.10;98.30;;;;;;5175039;23;20446;-83
2021/07/01 08:54:17;;;;;;;7.07;6.37;;;20.10;98.30;;;;;;5167228;23;20416;-83
2021/07/01 08:56:21;;;;;;;8.50;7.70;;;20.10;98.30;;;;;;5167424;23;20758;-83
2021/07/01 08:58:26;;;;;;;8.17;7.37;;;20.10;98.30;;;;;;5167316;23;20444;-83
2021/07/01 09:00:30;;;;;;;7.93;7.20;;;20.10;98.30;;;;;;5175644;23;20726;-83
2021/07/01 09:02:35;;;;;;;11.80;7.60;;;20.10;98.30;;;;;;5175353;23;20450;-82
2021/07/01 09:04:49;;;;;;;7.67;6.97;;;20.20;98.30;;;;;;5167333;23;20413;-83
2021/07/01 09:06:59;;;;;;;7.50;6.80;;;20.20;98.30;;;;;;5166092;23;20419;-83
2021/07/01 09:09:06;;;;;;;8.47;7.77;;;20.20;98.30;;;;;;5175191;23;20411;-82
2021/07/01 09:11:12;;;;;;;6.87;6.27;;;20.30;98.30;;;;;;5166548;23;20538;-83
2021/07/01 09:13:20;;;;;;;7.43;6.73;;;20.30;98.30;;;;;;5166275;23;20432;-82
2021/07/01 09:15:24;;;;;;;7.90;7.00;;;20.40;98.30;;;;;;5166175;23;20499;-82
2021/07/01 09:17:28;;;;;;;9.37;7.03;;;20.30;98.30;;;;;;5165920;23;20444;-83
2021/07/01 09:19:33;;;;;;;8.00;7.30;;;20.40;98.30;;;;;;5166243;23;20451;-83
2021/07/01 09:21:37;;;;;;;7.37;6.67;;;20.40;98.30;;;;;;5174705;23;20426;-83
2021/07/01 09:23:47;;;;;;;8.67;7.27;;;20.50;98.30;;;;;;5166305;23;20459;-82
2021/07/01 09:25:55;;;;;;;7.40;6.70;;;20.50;98.30;;;;;;5174470;23;20401;-83
2021/07/01 09:27:59;;;;;;;8.23;7.33;;;20.50;98.30;;;;;;5165803;23;20852;-82
2021/07/01 09:30:05;;;;;;;7.80;7.10;;;20.50;98.30;;;;;;5174444;23;20446;-83
2021/07/01 09:32:10;;;;;;;8.03;7.23;;;20.60;98.30;;;;;;5166153;23;20436;-83
2021/07/01 09:34:16;;;;;;;8.10;7.20;;;20.60;98.30;;;;;;5165978;23;20439;-83
2021/07/01 09:36:24;;;;;;;7.37;6.67;;;20.60;98.30;;;;;;5166045;23;20447;-82
2021/07/01 09:38:27;;;;;;;7.77;7.07;;;20.70;98.30;;;;;;5174071;23;20470;-82
2021/07/01 09:40:32;;;;;;;10.00;6.80;;;20.70;98.30;;;;;;5165780;23;20428;-83
2021/07/01 09:42:37;;;;;;;7.53;6.83;;;20.70;98.30;;;;;;5174423;23;20412;-83
2021/07/01 09:44:40;;;;;;;6.97;6.20;;;20.70;98.30;;;;;;5174463;23;20452;-83
2021/07/01 09:46:47;;;;;;;8.30;6.93;;;20.70;98.30;;;;;;5173958;23;20447;-82
2021/07/01 09:48:54;;;;;;;8.00;6.70;;;20.70;98.30;;;;;;5165799;23;20957;-83
2021/07/01 09:51:02;;;;;;;7.70;6.97;;;20.70;98.30;;;;;;5174241;23;20760;-83
2021/07/01 09:53:06;;;;;;;7.17;6.57;;;20.70;98.30;;;;;;5174048;23;20486;-83
2021/07/01 09:55:12;;;;;;;7.27;6.57;;;20.70;98.30;;;;;;5174493;23;20416;-83
2021/07/01 09:57:18;;;;;;;8.20;6.83;;;20.70;98.30;;;;;;5173952;23;20776;-83
2021/07/01 09:59:27;;;;;;;8.90;7.80;;;20.70;98.30;;;;;;5166272;23;20408;-83
2021/07/01 10:01:32;;;;;;;8.70;7.80;;;20.70;98.30;;;;;;5166059;23;20415;-82
2021/07/01 10:03:51;;;;;;;9.10;7.70;;;20.60;98.30;;;;;;5166121;23;20451;-82
2021/07/01 10:05:55;;;;;;;8.40;7.50;;;20.70;98.30;;;;;;5174262;23;20424;-83
2021/07/01 10:07:58;;;;;;;8.80;8.00;;;20.80;98.30;;;;;;5165568;23;20446;-82
2021/07/01 10:10:13;;;;;;;7.77;7.13;;;20.90;98.30;;;;;;5174420;23;20412;-82
2021/07/01 10:12:18;;;;;;;10.00;7.67;;;21.00;98.30;;;;;;5165821;23;20408;-82
2021/07/01 10:14:25;;;;;;;8.20;7.17;;;21.20;98.30;;;;;;5174782;23;20404;-82
2021/07/01 10:16:30;;;;;;;7.80;7.10;;;21.20;98.30;;;;;;5174668;23;20405;-82
2021/07/01 10:18:43;;;;;;;7.27;6.67;;;21.20;98.30;;;;;;5165601;23;20554;-82
2021/07/01 10:20:48;;;;;;;9.80;8.07;;;21.20;98.30;;;;;;5176301;23;20754;-83
2021/07/01 10:22:52;;;;;;;8.00;7.20;;;21.20;98.30;;;;;;5175555;23;20416;-82
2021/07/01 10:24:58;;;;;;;7.73;6.90;;;21.20;98.30;;;;;;5175740;23;20487;-82
2021/07/01 10:27:08;;;;;;;7.27;6.57;;;21.20;98.30;;;;;;5166856;23;20414;-82
2021/07/01 10:29:11;;;;;;;8.00;7.20;;;21.30;98.30;;;;;;5166933;23;20434;-82
2021/07/01 10:31:15;;;;;;;7.40;6.70;;;21.40;98.30;;;;;;5166420;23;20432;-83
2021/07/01 10:33:26;;;;;;;7.90;7.10;;;21.50;98.30;;;;;;5166742;23;20434;-83
2021/07/01 10:35:31;;;;;;;7.40;6.70;;;21.60;98.30;;;;;;5174921;23;20458;-81
2021/07/01 10:37:34;;;;;;;7.80;7.07;;;21.70;98.30;;;;;;5166283;23;20515;-82
2021/07/01 10:39:39;;;;;;;8.93;8.10;;;21.80;98.30;;;;;;5175372;23;20770;-82
2021/07/01 10:41:42;;;;;;;7.90;7.13;;;21.80;98.30;;;;;;5174772;23;21406;-83
2021/07/01 10:43:47;;;;;;;7.80;7.10;;;21.90;98.30;;;;;;5174641;23;20434;-82
2021/07/01 10:45:58;;;;;;;8.30;7.17;;;21.90;98.30;;;;;;5166236;23;20511;-82